WMT9GW EGGW-LIRF
Flight info
| Callsign | WMT9GW |
|---|---|
| Flight time | N/A |
| Altitude | 37000 |
| Route | RODNI1C RODNI N27 ICTAM Q63 CPT DCT MID UL612 OGULO DCT OKASI DCT OKEKO DCT MOU DCT MADIV DCT MOKIP DCT TUFTA DCT KOGAS DCT MEDAM DCT NITAM DCT MOGBO DCT ELB/N0446F360 DCT ELKAP ELKAP3A |
| Aircraft | A321/M-SDE3FGHIRWY/LB1 |
Departure
| Time | 2026-05-05 21:51 |
|---|---|
| Airport | London Luton Airport (EGGW) |
Arrival
| Time | N/A |
|---|---|
| Airport | Rome–Fiumicino Leonardo da Vinci International Airport (LIRF) |
| Time | Latitude | Longitude | Altitude | Speed | Heading |
|---|---|---|---|---|---|
| 2026-05-05 21:30 | 51.88135 | -0.37623 | 524 ft | 0 kts | 113° |
| 2026-05-05 21:41 | 51.88140 | -0.37645 | 523 ft | 2 kts | 112° |
| 2026-05-05 21:42 | 51.88144 | -0.37683 | 523 ft | 4 kts | 93° |
| 2026-05-05 21:42 | 51.88151 | -0.37718 | 523 ft | 4 kts | 144° |
| 2026-05-05 21:42 | 51.88160 | -0.37718 | 523 ft | 4 kts | 232° |
| 2026-05-05 21:42 | 51.88172 | -0.37689 | 523 ft | 1 kts | 239° |
| 2026-05-05 21:44 | 51.88168 | -0.37698 | 523 ft | 4 kts | 239° |
| 2026-05-05 21:45 | 51.88132 | -0.37782 | 523 ft | 13 kts | 227° |
| 2026-05-05 21:45 | 51.88062 | -0.37879 | 523 ft | 14 kts | 218° |
| 2026-05-05 21:45 | 51.87982 | -0.37980 | 523 ft | 15 kts | 216° |
| 2026-05-05 21:45 | 51.87873 | -0.38006 | 523 ft | 18 kts | 166° |
| 2026-05-05 21:46 | 51.87784 | -0.37859 | 523 ft | 19 kts | 115° |
| 2026-05-05 21:46 | 51.87728 | -0.37666 | 520 ft | 18 kts | 114° |
| 2026-05-05 21:46 | 51.87668 | -0.37502 | 521 ft | 16 kts | 140° |
| 2026-05-05 21:46 | 51.87565 | -0.37459 | 522 ft | 17 kts | 187° |
| 2026-05-05 21:47 | 51.87497 | -0.37587 | 523 ft | 14 kts | 253° |
| 2026-05-05 21:47 | 51.87468 | -0.37740 | 523 ft | 15 kts | 253° |
| 2026-05-05 21:47 | 51.87455 | -0.37810 | 522 ft | 0 kts | 252° |
| 2026-05-05 21:47 | 51.87452 | -0.37824 | 522 ft | 2 kts | 252° |
| 2026-05-05 21:48 | 51.87447 | -0.37853 | 523 ft | 4 kts | 252° |
| 2026-05-05 21:48 | 51.87439 | -0.37897 | 523 ft | 4 kts | 255° |
| 2026-05-05 21:48 | 51.87433 | -0.37933 | 523 ft | 0 kts | 255° |
| 2026-05-05 21:48 | 51.87432 | -0.37939 | 523 ft | 1 kts | 255° |
| 2026-05-05 21:49 | 51.87429 | -0.37956 | 524 ft | 2 kts | 255° |
| 2026-05-05 21:49 | 51.87425 | -0.37978 | 524 ft | 0 kts | 255° |
| 2026-05-05 21:49 | 51.87421 | -0.37997 | 524 ft | 7 kts | 245° |
| 2026-05-05 21:49 | 51.87326 | -0.38098 | 522 ft | 21 kts | 202° |
| 2026-05-05 21:50 | 51.87258 | -0.38024 | 524 ft | 10 kts | 79° |
| 2026-05-05 21:50 | 51.87263 | -0.37990 | 524 ft | 9 kts | 74° |
| 2026-05-05 21:50 | 51.87357 | -0.37464 | 522 ft | 87 kts | 74° |
| 2026-05-05 21:50 | 51.87585 | -0.36171 | 527 ft | 149 kts | 76° |
| 2026-05-05 21:51 | 51.87853 | -0.34521 | 1199 ft | 150 kts | 73° |
| 2026-05-05 21:51 | 51.88122 | -0.32903 | 1998 ft | 152 kts | 72° |
| 2026-05-05 21:51 | 51.88439 | -0.31159 | 2424 ft | 172 kts | 73° |
| 2026-05-05 21:51 | 51.88796 | -0.29206 | 2788 ft | 194 kts | 72° |
| 2026-05-05 21:52 | 51.89012 | -0.24881 | 3807 ft | 215 kts | 108° |
| 2026-05-05 21:52 | 51.88154 | -0.23045 | 4462 ft | 221 kts | 139° |
| 2026-05-05 21:52 | 51.87288 | -0.22303 | 4883 ft | 228 kts | 160° |
| 2026-05-05 21:53 | 51.86713 | -0.22117 | 5178 ft | 203 kts | 173° |
| 2026-05-05 21:53 | 51.85376 | -0.22395 | 5039 ft | 188 kts | 206° |
| 2026-05-05 21:53 | 51.84493 | -0.23671 | 5077 ft | 161 kts | 233° |